sensor_id;sensor_type;location;lat;lon;timestamp;pressure;altitude;pressure_sealevel;temperature;humidity
36378;BME280;22402;42.746;23.606;2023-05-10T00:17:52;93738.06;;;13.96;80.78
36378;BME280;22402;42.746;23.606;2023-05-10T00:20:18;93737.25;;;13.95;80.87
36378;BME280;22402;42.746;23.606;2023-05-10T00:22:43;93739.34;;;13.91;80.91
36378;BME280;22402;42.746;23.606;2023-05-10T00:25:09;93714.56;;;13.78;81.13
36378;BME280;22402;42.746;23.606;2023-05-10T00:27:36;93729.53;;;13.94;80.99
36378;BME280;22402;42.746;23.606;2023-05-10T00:30:01;93721.00;;;13.91;81.18
36378;BME280;22402;42.746;23.606;2023-05-10T00:32:27;93718.06;;;13.86;80.98
36378;BME280;22402;42.746;23.606;2023-05-10T00:34:52;93727.22;;;13.90;81.25
36378;BME280;22402;42.746;23.606;2023-05-10T00:37:17;93724.75;;;13.89;81.12
36378;BME280;22402;42.746;23.606;2023-05-10T00:39:43;93723.13;;;13.88;80.89
36378;BME280;22402;42.746;23.606;2023-05-10T00:42:08;93726.56;;;13.88;81.19
36378;BME280;22402;42.746;23.606;2023-05-10T00:44:34;93718.06;;;13.86;81.37
36378;BME280;22402;42.746;23.606;2023-05-10T00:46:59;93726.88;;;13.85;80.98
36378;BME280;22402;42.746;23.606;2023-05-10T00:49:25;93720.00;;;13.84;81.38
36378;BME280;22402;42.746;23.606;2023-05-10T00:51:50;93721.13;;;13.82;81.53
36378;BME280;22402;42.746;23.606;2023-05-10T00:54:16;93717.03;;;13.79;81.47
36378;BME280;22402;42.746;23.606;2023-05-10T00:56:42;93708.97;;;13.73;81.66
36378;BME280;22402;42.746;23.606;2023-05-10T00:59:13;93723.25;;;13.78;81.72
36378;BME280;22402;42.746;23.606;2023-05-10T01:01:39;93714.34;;;13.71;81.57
36378;BME280;22402;42.746;23.606;2023-05-10T01:04:05;93714.72;;;13.76;81.37
36378;BME280;22402;42.746;23.606;2023-05-10T01:06:30;93710.78;;;13.72;81.81
36378;BME280;22402;42.746;23.606;2023-05-10T01:08:56;93714.06;;;13.74;81.79
36378;BME280;22402;42.746;23.606;2023-05-10T01:11:21;93714.06;;;13.74;81.70
36378;BME280;22402;42.746;23.606;2023-05-10T01:13:54;93705.53;;;13.72;81.79
36378;BME280;22402;42.746;23.606;2023-05-10T01:16:20;93704.19;;;13.68;81.86
36378;BME280;22402;42.746;23.606;2023-05-10T01:18:46;93714.34;;;13.71;82.01
36378;BME280;22402;42.746;23.606;2023-05-10T01:24:04;93711.09;;;13.69;82.29
36378;BME280;22402;42.746;23.606;2023-05-10T01:32:33;93705.34;;;13.65;82.52
36378;BME280;22402;42.746;23.606;2023-05-10T01:35:21;93703.53;;;13.66;82.28
36378;BME280;22402;42.746;23.606;2023-05-10T01:38:22;93703.38;;;13.67;82.49
36378;BME280;22402;42.746;23.606;2023-05-10T01:41:14;93705.34;;;13.65;82.29
36378;BME280;22402;42.746;23.606;2023-05-10T01:46:35;93689.72;;;13.56;82.34
36378;BME280;22402;42.746;23.606;2023-05-10T01:49:09;93700.88;;;13.58;82.63
36378;BME280;22402;42.746;23.606;2023-05-10T01:51:42;93697.94;;;13.61;82.52
36378;BME280;22402;42.746;23.606;2023-05-10T01:54:11;93692.34;;;13.56;82.55
36378;BME280;22402;42.746;23.606;2023-05-10T01:56:39;93693.00;;;13.58;82.74
36378;BME280;22402;42.746;23.606;2023-05-10T01:59:11;93699.88;;;13.59;82.68
36378;BME280;22402;42.746;23.606;2023-05-10T02:01:38;93696.63;;;13.57;82.77
36378;BME280;22402;42.746;23.606;2023-05-10T02:04:06;93703.63;;;13.56;82.80
36378;BME280;22402;42.746;23.606;2023-05-10T02:06:33;93681.84;;;13.48;82.99
36378;BME280;22402;42.746;23.606;2023-05-10T02:09:00;93694.97;;;13.56;82.67
36378;BME280;22402;42.746;23.606;2023-05-10T02:11:27;93698.56;;;13.55;82.78
36378;BME280;22402;42.746;23.606;2023-05-10T02:13:55;93702.19;;;13.54;82.70
36378;BME280;22402;42.746;23.606;2023-05-10T02:16:23;93703.94;;;13.53;82.95
36378;BME280;22402;42.746;23.606;2023-05-10T02:18:51;93719.84;;;13.52;82.67
36378;BME280;22402;42.746;23.606;2023-05-10T02:21:19;93718.19;;;13.51;82.66
36378;BME280;22402;42.746;23.606;2023-05-10T02:23:46;93707.06;;;13.49;82.90
36378;BME280;22402;42.746;23.606;2023-05-10T02:26:14;93720.16;;;13.49;82.61
36378;BME280;22402;42.746;23.606;2023-05-10T02:28:42;93718.81;;;13.44;82.67
36378;BME280;22402;42.746;23.606;2023-05-10T02:31:09;93712.91;;;13.42;82.57
36378;BME280;22402;42.746;23.606;2023-05-10T02:33:38;93718.28;;;13.41;82.50
36378;BME280;22402;42.746;23.606;2023-05-10T02:36:05;93695.97;;;13.29;82.58
36378;BME280;22402;42.746;23.606;2023-05-10T02:38:32;93694.47;;;13.26;82.28
36378;BME280;22402;42.746;23.606;2023-05-10T02:40:59;93711.22;;;13.33;82.33
36378;BME280;22402;42.746;23.606;2023-05-10T02:43:25;93707.94;;;13.31;82.01
36378;BME280;22402;42.746;23.606;2023-05-10T02:48:26;93716.25;;;13.27;81.95
36378;BME280;22402;42.746;23.606;2023-05-10T02:50:52;93705.53;;;13.20;82.00
36378;BME280;22402;42.746;23.606;2023-05-10T02:53:23;93713.25;;;13.21;81.59
36378;BME280;22402;42.746;23.606;2023-05-10T02:55:56;93719.59;;;13.19;81.29
36378;BME280;22402;42.746;23.606;2023-05-10T02:58:22;93708.75;;;13.14;81.43
36378;BME280;22402;42.746;23.606;2023-05-10T03:00:48;93710.72;;;13.12;81.58
36378;BME280;22402;42.746;23.606;2023-05-10T03:03:13;93713.50;;;13.10;81.20
36378;BME280;22402;42.746;23.606;2023-05-10T03:05:38;93710.34;;;13.07;81.25
36378;BME280;22402;42.746;23.606;2023-05-10T03:08:04;93725.25;;;13.06;80.91
36378;BME280;22402;42.746;23.606;2023-05-10T03:10:32;93722.09;;;13.03;80.77
36378;BME280;22402;42.746;23.606;2023-05-10T03:16:11;93727.94;;;12.96;80.54
36378;BME280;22402;42.746;23.606;2023-05-10T03:19:01;93720.69;;;12.90;80.79
36378;BME280;22402;42.746;23.606;2023-05-10T03:21:31;93730.19;;;12.91;80.54
36378;BME280;22402;42.746;23.606;2023-05-10T03:23:59;93714.13;;;12.86;80.62
36378;BME280;22402;42.746;23.606;2023-05-10T03:26:31;93725.72;;;12.84;80.53
36378;BME280;22402;42.746;23.606;2023-05-10T03:28:57;93724.22;;;12.81;80.69
36378;BME280;22402;42.746;23.606;2023-05-10T03:31:24;93731.41;;;12.79;80.35
36378;BME280;22402;42.746;23.606;2023-05-10T03:33:51;93732.38;;;12.78;80.17
36378;BME280;22402;42.746;23.606;2023-05-10T03:36:17;93722.19;;;12.75;80.13
36378;BME280;22402;42.746;23.606;2023-05-10T03:38:42;93724.13;;;12.73;80.06
36378;BME280;22402;42.746;23.606;2023-05-10T03:41:08;93731.97;;;12.73;80.29
36378;BME280;22402;42.746;23.606;2023-05-10T03:43:33;93727.06;;;12.70;80.40
36378;BME280;22402;42.746;23.606;2023-05-10T03:46:02;93720.88;;;12.71;80.51
36378;BME280;22402;42.746;23.606;2023-05-10T03:48:27;93722.66;;;12.70;80.43
36378;BME280;22402;42.746;23.606;2023-05-10T03:50:53;93715.63;;;12.71;80.75
36378;BME280;22402;42.746;23.606;2023-05-10T03:53:18;93720.19;;;12.69;80.21
36378;BME280;22402;42.746;23.606;2023-05-10T03:55:43;93710.72;;;12.68;80.74
36378;BME280;22402;42.746;23.606;2023-05-10T03:58:12;93726.25;;;12.69;80.44
36378;BME280;22402;42.746;23.606;2023-05-10T04:00:37;93726.09;;;12.71;80.53
36378;BME280;22402;42.746;23.606;2023-05-10T04:03:08;93723.47;;;12.71;80.81
36378;BME280;22402;42.746;23.606;2023-05-10T04:05:34;93729.84;;;12.68;80.63
36378;BME280;22402;42.746;23.606;2023-05-10T04:08:00;93727.06;;;12.70;80.72
36378;BME280;22402;42.746;23.606;2023-05-10T04:10:25;93738.19;;;12.72;80.72
36378;BME280;22402;42.746;23.606;2023-05-10T04:12:51;93732.97;;;12.72;80.70
36378;BME280;22402;42.746;23.606;2023-05-10T04:15:16;93736.94;;;12.76;80.74
36378;BME280;22402;42.746;23.606;2023-05-10T04:17:41;93728.41;;;12.74;80.90
36378;BME280;22402;42.746;23.606;2023-05-10T04:20:07;93738.97;;;12.82;81.44
36378;BME280;22402;42.746;23.606;2023-05-10T04:22:33;93733.44;;;12.85;81.36
36378;BME280;22402;42.746;23.606;2023-05-10T04:24:59;93728.84;;;12.87;81.59
36378;BME280;22402;42.746;23.606;2023-05-10T04:27:24;93732.81;;;12.91;81.48
36378;BME280;22402;42.746;23.606;2023-05-10T04:29:49;93742.00;;;12.95;81.96
36378;BME280;22402;42.746;23.606;2023-05-10T04:32:15;93736.31;;;13.00;82.14
36378;BME280;22402;42.746;23.606;2023-05-10T04:34:43;93731.59;;;13.04;81.86
36378;BME280;22402;42.746;23.606;2023-05-10T04:37:08;93726.06;;;13.07;74.07
36378;BME280;22402;42.746;23.606;2023-05-10T04:39:34;93724.72;;;12.85;70.50
36378;BME280;22402;42.746;23.606;2023-05-10T04:42:00;93736.41;;;12.54;72.67
36378;BME280;22402;42.746;23.606;2023-05-10T04:44:28;93732.38;;;12.42;76.30
36378;BME280;22402;42.746;23.606;2023-05-10T04:46:53;93724.91;;;12.47;77.93
36378;BME280;22402;42.746;23.606;2023-05-10T04:49:19;93740.69;;;12.56;78.48
36378;BME280;22402;42.746;23.606;2023-05-10T04:51:45;93725.88;;;12.64;78.71
36378;BME280;22402;42.746;23.606;2023-05-10T04:54:10;93725.81;;;12.74;78.89
36378;BME280;22402;42.746;23.606;2023-05-10T04:56:35;93725.72;;;12.84;79.76
36378;BME280;22402;42.746;23.606;2023-05-10T04:59:01;93721.00;;;12.87;79.86
36378;BME280;22402;42.746;23.606;2023-05-10T05:01:26;93733.16;;;12.96;79.86
36378;BME280;22402;42.746;23.606;2023-05-10T05:03:52;93729.94;;;13.03;80.18
36378;BME280;22402;42.746;23.606;2023-05-10T05:06:18;93731.31;;;13.07;80.17
36378;BME280;22402;42.746;23.606;2023-05-10T05:08:43;93727.38;;;13.11;80.67
36378;BME280;22402;42.746;23.606;2023-05-10T05:11:08;93733.97;;;13.15;80.73
36378;BME280;22402;42.746;23.606;2023-05-10T05:13:34;93736.44;;;13.16;80.88
36378;BME280;22402;42.746;23.606;2023-05-10T05:16:01;93742.84;;;13.22;80.90
36378;BME280;22402;42.746;23.606;2023-05-10T05:18:28;93743.53;;;13.24;80.94
36378;BME280;22402;42.746;23.606;2023-05-10T05:20:53;93733.06;;;13.24;81.24
36378;BME280;22402;42.746;23.606;2023-05-10T05:23:18;93739.66;;;13.28;81.17
36378;BME280;22402;42.746;23.606;2023-05-10T05:25:46;93738.22;;;13.34;81.14
36378;BME280;22402;42.746;23.606;2023-05-10T05:28:11;93740.09;;;13.41;81.44
36378;BME280;22402;42.746;23.606;2023-05-10T05:30:37;93745.97;;;13.43;81.49
36378;BME280;22402;42.746;23.606;2023-05-10T05:33:02;93752.25;;;13.51;81.53
36378;BME280;22402;42.746;23.606;2023-05-10T05:35:28;93751.63;;;13.57;81.41
36378;BME280;22402;42.746;23.606;2023-05-10T05:37:53;93754.59;;;13.62;81.65
36378;BME280;22402;42.746;23.606;2023-05-10T05:40:19;93753.97;;;13.68;81.44
36378;BME280;22402;42.746;23.606;2023-05-10T05:42:45;93757.63;;;13.75;81.89
36378;BME280;22402;42.746;23.606;2023-05-10T05:45:11;93752.06;;;13.78;81.84
36378;BME280;22402;42.746;23.606;2023-05-10T05:47:38;93748.81;;;13.84;81.95
36378;BME280;22402;42.746;23.606;2023-05-10T05:50:05;93741.63;;;13.86;81.96
36378;BME280;22402;42.746;23.606;2023-05-10T05:52:30;93756.09;;;13.99;81.98
36378;BME280;22402;42.746;23.606;2023-05-10T05:54:56;93745.94;;;14.04;82.05
36378;BME280;22402;42.746;23.606;2023-05-10T05:57:21;93746.97;;;14.11;82.10
36378;BME280;22402;42.746;23.606;2023-05-10T05:59:46;93749.63;;;14.19;82.14
36378;BME280;22402;42.746;23.606;2023-05-10T06:02:12;93749.16;;;14.24;82.15
36378;BME280;22402;42.746;23.606;2023-05-10T06:04:39;93748.19;;;14.33;82.43
36378;BME280;22402;42.746;23.606;2023-05-10T06:07:05;93757.06;;;14.40;82.26
36378;BME280;22402;42.746;23.606;2023-05-10T06:09:30;93753.81;;;14.46;81.92
36378;BME280;22402;42.746;23.606;2023-05-10T06:11:55;93759.25;;;14.53;82.56
36378;BME280;22402;42.746;23.606;2023-05-10T06:14:24;93760.44;;;14.58;82.49
36378;BME280;22402;42.746;23.606;2023-05-10T06:16:50;93760.59;;;14.65;82.41
36378;BME280;22402;42.746;23.606;2023-05-10T06:19:15;93768.50;;;14.73;82.78
36378;BME280;22402;42.746;23.606;2023-05-10T06:21:41;93756.84;;;14.76;82.22
36378;BME280;22402;42.746;23.606;2023-05-10T06:24:06;93767.19;;;14.86;82.44
36378;BME280;22402;42.746;23.606;2023-05-10T06:26:34;93771.78;;;14.92;82.76
36378;BME280;22402;42.746;23.606;2023-05-10T06:29:00;93765.06;;;14.97;82.63
36378;BME280;22402;42.746;23.606;2023-05-10T06:31:26;93784.28;;;15.06;82.85
36378;BME280;22402;42.746;23.606;2023-05-10T06:33:51;93766.25;;;15.11;83.06
36378;BME280;22402;42.746;23.606;2023-05-10T06:36:17;93771.47;;;15.19;83.21
36378;BME280;22402;42.746;23.606;2023-05-10T06:38:43;93773.13;;;15.28;83.27
36378;BME280;22402;42.746;23.606;2023-05-10T06:41:08;93773.44;;;15.34;83.40
36378;BME280;22402;42.746;23.606;2023-05-10T06:43:33;93771.16;;;15.39;83.25
36378;BME280;22402;42.746;23.606;2023-05-10T06:45:59;93773.13;;;15.45;83.71
36378;BME280;22402;42.746;23.606;2023-05-10T06:48:25;93765.56;;;15.50;83.14
36378;BME280;22402;42.746;23.606;2023-05-10T06:50:50;93768.00;;;15.52;82.80
36378;BME280;22402;42.746;23.606;2023-05-10T06:53:16;93765.22;;;15.53;83.10
36378;BME280;22402;42.746;23.606;2023-05-10T06:55:41;93769.00;;;15.59;83.01
36378;BME280;22402;42.746;23.606;2023-05-10T06:58:07;93765.84;;;15.63;82.65
36378;BME280;22402;42.746;23.606;2023-05-10T07:00:32;93756.97;;;15.64;82.86
36378;BME280;22402;42.746;23.606;2023-05-10T07:02:58;93758.47;;;15.67;83.15
36378;BME280;22402;42.746;23.606;2023-05-10T07:05:24;93761.63;;;15.70;83.23
36378;BME280;22402;42.746;23.606;2023-05-10T07:07:49;93762.09;;;15.74;83.02
36378;BME280;22402;42.746;23.606;2023-05-10T07:10:15;93770.47;;;15.78;82.43
36378;BME280;22402;42.746;23.606;2023-05-10T07:12:40;93760.44;;;15.81;82.89
36378;BME280;22402;42.746;23.606;2023-05-10T07:15:07;93753.88;;;15.77;82.96
36378;BME280;22402;42.746;23.606;2023-05-10T07:17:32;93771.75;;;15.90;83.08
36378;BME280;22402;42.746;23.606;2023-05-10T07:19:59;93760.91;;;15.93;82.65
36378;BME280;22402;42.746;23.606;2023-05-10T07:22:25;93767.44;;;15.97;82.85
36378;BME280;22402;42.746;23.606;2023-05-10T07:24:51;93765.13;;;16.02;82.94
36378;BME280;22402;42.746;23.606;2023-05-10T07:27:16;93768.91;;;16.08;82.93
36378;BME280;22402;42.746;23.606;2023-05-10T07:29:42;93768.56;;;16.11;82.68
36378;BME280;22402;42.746;23.606;2023-05-10T07:32:07;93778.59;;;16.15;82.57
36378;BME280;22402;42.746;23.606;2023-05-10T07:34:33;93787.78;;;16.20;82.56
36378;BME280;22402;42.746;23.606;2023-05-10T07:36:58;93784.13;;;16.21;81.81
36378;BME280;22402;42.746;23.606;2023-05-10T07:39:24;93783.44;;;16.27;81.51
36378;BME280;22402;42.746;23.606;2023-05-10T07:41:50;93782.47;;;16.28;81.12
36378;BME280;22402;42.746;23.606;2023-05-10T07:44:15;93778.69;;;16.30;81.49
36378;BME280;22402;42.746;23.606;2023-05-10T07:46:43;93775.22;;;16.30;80.76
36378;BME280;22402;42.746;23.606;2023-05-10T07:49:09;93787.72;;;16.36;81.05
36378;BME280;22402;42.746;23.606;2023-05-10T07:51:34;93783.09;;;16.38;81.01
36378;BME280;22402;42.746;23.606;2023-05-10T07:54:00;93792.63;;;16.39;80.79
36378;BME280;22402;42.746;23.606;2023-05-10T07:56:30;93786.69;;;16.45;80.69
36378;BME280;22402;42.746;23.606;2023-05-10T07:58:59;93797.03;;;16.47;81.30
36378;BME280;22402;42.746;23.606;2023-05-10T08:01:25;93787.97;;;16.49;81.51
36378;BME280;22402;42.746;23.606;2023-05-10T08:03:51;93787.63;;;16.52;81.44
36378;BME280;22402;42.746;23.606;2023-05-10T08:06:19;93796.00;;;16.56;81.75
36378;BME280;22402;42.746;23.606;2023-05-10T08:08:48;93793.69;;;16.61;81.28
36378;BME280;22402;42.746;23.606;2023-05-10T08:11:19;93790.50;;;16.66;81.45
36378;BME280;22402;42.746;23.606;2023-05-10T08:13:46;93783.94;;;16.70;81.77
36378;BME280;22402;42.746;23.606;2023-05-10T08:16:11;93796.09;;;16.79;81.32
36378;BME280;22402;42.746;23.606;2023-05-10T08:18:37;93782.22;;;16.85;81.59
36378;BME280;22402;42.746;23.606;2023-05-10T08:21:03;93790.06;;;16.93;81.58
36378;BME280;22402;42.746;23.606;2023-05-10T08:23:28;93791.00;;;17.00;81.37
36378;BME280;22402;42.746;23.606;2023-05-10T08:25:53;93785.69;;;17.08;81.58
36378;BME280;22402;42.746;23.606;2023-05-10T08:28:19;93778.59;;;17.09;81.92
36378;BME280;22402;42.746;23.606;2023-05-10T08:30:44;93789.03;;;17.25;81.67
36378;BME280;22402;42.746;23.606;2023-05-10T08:33:10;93786.81;;;17.37;81.78
36378;BME280;22402;42.746;23.606;2023-05-10T08:35:36;93791.00;;;17.46;81.79
36378;BME280;22402;42.746;23.606;2023-05-10T08:38:01;93787.56;;;17.61;81.46
36378;BME280;22402;42.746;23.606;2023-05-10T08:40:27;93781.25;;;17.70;81.85
36378;BME280;22402;42.746;23.606;2023-05-10T08:42:59;93789.38;;;17.83;81.76
36378;BME280;22402;42.746;23.606;2023-05-10T08:45:27;93793.84;;;17.97;81.62
36378;BME280;22402;42.746;23.606;2023-05-10T08:47:57;93792.41;;;18.10;81.40
36378;BME280;22402;42.746;23.606;2023-05-10T08:50:25;93785.88;;;18.20;81.47
36378;BME280;22402;42.746;23.606;2023-05-10T08:52:53;93783.84;;;18.37;81.51
36378;BME280;22402;42.746;23.606;2023-05-10T08:55:21;93793.78;;;18.50;81.32
36378;BME280;22402;42.746;23.606;2023-05-10T08:57:49;93789.91;;;18.67;81.01
36378;BME280;22402;42.746;23.606;2023-05-10T09:00:15;93790.09;;;18.81;80.94
36378;BME280;22402;42.746;23.606;2023-05-10T09:02:41;93790.22;;;18.94;80.35
36378;BME280;22402;42.746;23.606;2023-05-10T09:05:08;93781.81;;;19.05;79.61
36378;BME280;22402;42.746;23.606;2023-05-10T09:07:35;93801.28;;;19.19;79.33
36378;BME280;22402;42.746;23.606;2023-05-10T09:10:02;93798.75;;;19.32;78.81
36378;BME280;22402;42.746;23.606;2023-05-10T09:12:27;93784.41;;;19.42;78.40
36378;BME280;22402;42.746;23.606;2023-05-10T09:14:53;93789.19;;;19.53;78.03
36378;BME280;22402;42.746;23.606;2023-05-10T09:17:19;93784.41;;;19.63;77.72
36378;BME280;22402;42.746;23.606;2023-05-10T09:19:46;93783.47;;;19.71;77.22
36378;BME280;22402;42.746;23.606;2023-05-10T09:22:12;93784.78;;;19.82;77.05
36378;BME280;22402;42.746;23.606;2023-05-10T09:24:37;93782.59;;;19.92;76.36
36378;BME280;22402;42.746;23.606;2023-05-10T09:27:07;93790.00;;;20.03;75.78
36378;BME280;22402;42.746;23.606;2023-05-10T09:29:41;93787.00;;;20.13;74.42
36378;BME280;22402;42.746;23.606;2023-05-10T09:32:06;93780.75;;;20.20;73.81
36378;BME280;22402;42.746;23.606;2023-05-10T09:34:32;93780.78;;;20.27;72.95
36378;BME280;22402;42.746;23.606;2023-05-10T09:37:01;93777.19;;;20.35;72.06
36378;BME280;22402;42.746;23.606;2023-05-10T09:39:35;93770.69;;;20.44;71.89
36378;BME280;22402;42.746;23.606;2023-05-10T09:42:08;93772.19;;;20.53;72.39
36378;BME280;22402;42.746;23.606;2023-05-10T09:44:35;93777.75;;;20.65;72.05
36378;BME280;22402;42.746;23.606;2023-05-10T09:47:02;93768.78;;;20.73;71.50
36378;BME280;22402;42.746;23.606;2023-05-10T09:49:28;93774.56;;;20.83;71.07
36378;BME280;22402;42.746;23.606;2023-05-10T09:52:07;93760.75;;;20.94;70.70
36378;BME280;22402;42.746;23.606;2023-05-10T09:54:34;93764.22;;;21.01;70.56
36378;BME280;22402;42.746;23.606;2023-05-10T09:57:00;93756.47;;;21.06;70.35
36378;BME280;22402;42.746;23.606;2023-05-10T09:59:30;93767.91;;;21.13;71.00
36378;BME280;22402;42.746;23.606;2023-05-10T10:01:56;93767.91;;;21.20;70.50
36378;BME280;22402;42.746;23.606;2023-05-10T10:04:22;93765.66;;;21.24;70.04
36378;BME280;22402;42.746;23.606;2023-05-10T10:06:58;93754.69;;;21.27;69.30
36378;BME280;22402;42.746;23.606;2023-05-10T10:09:25;93754.28;;;21.30;68.95
36378;BME280;22402;42.746;23.606;2023-05-10T10:11:50;93753.66;;;21.34;69.77
36378;BME280;22402;42.746;23.606;2023-05-10T10:14:18;93752.47;;;21.37;69.14
36378;BME280;22402;42.746;23.606;2023-05-10T10:16:43;93746.13;;;21.38;68.81
36378;BME280;22402;42.746;23.606;2023-05-10T10:19:09;93744.75;;;21.42;68.04
36378;BME280;22402;42.746;23.606;2023-05-10T10:21:35;93739.22;;;21.44;67.93
36378;BME280;22402;42.746;23.606;2023-05-10T10:24:01;93742.88;;;21.49;67.84
36378;BME280;22402;42.746;23.606;2023-05-10T10:26:26;93740.06;;;21.51;64.08
36378;BME280;22402;42.746;23.606;2023-05-10T10:32:22;93737.59;;;21.43;59.21
36378;BME280;22402;42.746;23.606;2023-05-10T10:34:51;93734.13;;;21.49;62.59
36378;BME280;22402;42.746;23.606;2023-05-10T10:37:17;93745.75;;;21.54;62.56
36378;BME280;22402;42.746;23.606;2023-05-10T10:39:42;93738.19;;;21.58;60.42
36378;BME280;22402;42.746;23.606;2023-05-10T10:42:08;93739.22;;;21.64;58.49
36378;BME280;22402;42.746;23.606;2023-05-10T10:44:36;93750.25;;;21.67;57.15
36378;BME280;22402;42.746;23.606;2023-05-10T10:49:38;93740.66;;;21.73;54.58
36378;BME280;22402;42.746;23.606;2023-05-10T10:57:24;93743.47;;;21.91;56.21
36378;BME280;22402;42.746;23.606;2023-05-10T10:59:53;93745.31;;;21.97;54.45
36378;BME280;22402;42.746;23.606;2023-05-10T11:03:04;93746.31;;;22.10;55.18
36378;BME280;22402;42.746;23.606;2023-05-10T11:05:39;93738.78;;;22.20;55.72
36378;BME280;22402;42.746;23.606;2023-05-10T11:10:36;93747.72;;;22.32;56.90
36378;BME280;22402;42.746;23.606;2023-05-10T11:13:06;93744.44;;;22.37;57.00
36378;BME280;22402;42.746;23.606;2023-05-10T11:15:33;93752.19;;;22.38;56.94
36378;BME280;22402;42.746;23.606;2023-05-10T11:17:58;93741.16;;;22.41;56.98
36378;BME280;22402;42.746;23.606;2023-05-10T11:20:27;93735.44;;;22.44;57.06
36378;BME280;22402;42.746;23.606;2023-05-10T11:23:10;93747.25;;;22.48;57.40
36378;BME280;22402;42.746;23.606;2023-05-10T11:25:41;93736.63;;;22.48;57.77
36378;BME280;22402;42.746;23.606;2023-05-10T11:28:07;93736.84;;;22.47;57.41
36378;BME280;22402;42.746;23.606;2023-05-10T11:30:33;93732.56;;;22.46;57.23
36378;BME280;22402;42.746;23.606;2023-05-10T11:32:58;93734.63;;;22.44;57.16
36378;BME280;22402;42.746;23.606;2023-05-10T11:35:24;93728.91;;;22.40;57.33
36378;BME280;22402;42.746;23.606;2023-05-10T11:37:52;93735.66;;;22.36;57.23
36378;BME280;22402;42.746;23.606;2023-05-10T11:40:18;93737.72;;;22.34;57.93
36378;BME280;22402;42.746;23.606;2023-05-10T11:42:44;93739.13;;;22.30;58.61
36378;BME280;22402;42.746;23.606;2023-05-10T11:45:10;93738.75;;;22.26;58.92
36378;BME280;22402;42.746;23.606;2023-05-10T11:47:36;93738.34;;;22.23;58.91
36378;BME280;22402;42.746;23.606;2023-05-10T11:50:02;93731.81;;;22.19;58.89
36378;BME280;22402;42.746;23.606;2023-05-10T11:52:28;93739.19;;;22.17;58.95
36378;BME280;22402;42.746;23.606;2023-05-10T11:54:54;93735.50;;;22.11;59.20
36378;BME280;22402;42.746;23.606;2023-05-10T11:57:21;93745.31;;;22.11;58.84
36378;BME280;22402;42.746;23.606;2023-05-10T11:59:53;93733.88;;;22.10;58.63
36378;BME280;22402;42.746;23.606;2023-05-10T12:02:20;93725.69;;;22.12;58.86
36378;BME280;22402;42.746;23.606;2023-05-10T12:04:46;93729.53;;;22.16;58.56
36378;BME280;22402;42.746;23.606;2023-05-10T12:07:11;93728.75;;;22.22;58.67
36378;BME280;22402;42.746;23.606;2023-05-10T12:09:41;93723.22;;;22.23;58.29
36378;BME280;22402;42.746;23.606;2023-05-10T12:12:07;93732.81;;;22.31;58.59
36378;BME280;22402;42.746;23.606;2023-05-10T12:14:35;93734.03;;;22.35;58.02
36378;BME280;22402;42.746;23.606;2023-05-10T12:17:01;93725.63;;;22.38;57.77
36378;BME280;22402;42.746;23.606;2023-05-10T12:19:26;93727.66;;;22.49;56.00
36378;BME280;22402;42.746;23.606;2023-05-10T12:21:52;93726.38;;;22.59;55.38
36378;BME280;22402;42.746;23.606;2023-05-10T12:24:18;93720.00;;;22.66;55.51
36378;BME280;22402;42.746;23.606;2023-05-10T12:26:45;93720.56;;;22.75;55.46
36378;BME280;22402;42.746;23.606;2023-05-10T12:29:20;93729.53;;;22.81;55.35
36378;BME280;22402;42.746;23.606;2023-05-10T12:31:53;93710.31;;;22.85;55.30
36378;BME280;22402;42.746;23.606;2023-05-10T12:34:23;93712.94;;;22.92;55.62
36378;BME280;22402;42.746;23.606;2023-05-10T12:36:53;93699.25;;;22.95;55.73
36378;BME280;22402;42.746;23.606;2023-05-10T12:39:19;93705.97;;;22.97;55.79
36378;BME280;22402;42.746;23.606;2023-05-10T12:41:44;93702.09;;;23.00;55.88
36378;BME280;22402;42.746;23.606;2023-05-10T12:44:10;93701.84;;;23.02;56.05
36378;BME280;22402;42.746;23.606;2023-05-10T12:46:35;93695.53;;;23.03;56.20
36378;BME280;22402;42.746;23.606;2023-05-10T12:49:01;93697.16;;;23.04;56.13
36378;BME280;22402;42.746;23.606;2023-05-10T12:51:26;93698.19;;;23.03;56.01
36378;BME280;22402;42.746;23.606;2023-05-10T12:53:52;93691.22;;;23.02;55.96
36378;BME280;22402;42.746;23.606;2023-05-10T12:56:17;93688.56;;;23.02;56.03
36378;BME280;22402;42.746;23.606;2023-05-10T12:58:43;93692.25;;;23.01;56.38
36378;BME280;22402;42.746;23.606;2023-05-10T13:01:15;93686.94;;;23.01;56.80
36378;BME280;22402;42.746;23.606;2023-05-10T13:03:41;93686.94;;;23.01;56.84
36378;BME280;22402;42.746;23.606;2023-05-10T13:06:08;93680.00;;;23.00;56.68
36378;BME280;22402;42.746;23.606;2023-05-10T13:08:34;93673.03;;;22.98;57.00
36378;BME280;22402;42.746;23.606;2023-05-10T13:11:02;93680.44;;;22.96;57.57
36378;BME280;22402;42.746;23.606;2023-05-10T13:13:28;93679.63;;;22.89;57.60
36378;BME280;22402;42.746;23.606;2023-05-10T13:15:54;93681.25;;;22.90;57.99
36378;BME280;22402;42.746;23.606;2023-05-10T13:18:19;93686.97;;;22.87;58.37
36378;BME280;22402;42.746;23.606;2023-05-10T13:20:45;93678.41;;;22.85;58.62
36378;BME280;22402;42.746;23.606;2023-05-10T13:23:11;93682.31;;;22.83;58.63
36378;BME280;22402;42.746;23.606;2023-05-10T13:28:02;93673.56;;;22.75;58.80
36378;BME280;22402;42.746;23.606;2023-05-10T13:30:27;93669.69;;;22.71;58.64
36378;BME280;22402;42.746;23.606;2023-05-10T13:32:54;93674.63;;;22.68;59.03
36378;BME280;22402;42.746;23.606;2023-05-10T13:35:19;93676.09;;;22.64;59.38
36378;BME280;22402;42.746;23.606;2023-05-10T13:37:45;93674.06;;;22.59;59.26
36378;BME280;22402;42.746;23.606;2023-05-10T13:40:11;93677.13;;;22.56;59.06